createdAt,value
2023-11-05T00:00:40.155Z,10
2023-11-05T00:10:40.146Z,10
2023-11-05T00:20:40.100Z,10
2023-11-05T00:30:40.081Z,10.2
2023-11-05T00:40:40.058Z,10.4
2023-11-05T00:50:40.014Z,10.4
2023-11-05T01:00:40.022Z,10.3
2023-11-05T01:10:39.957Z,10.3
2023-11-05T01:20:39.934Z,10.3
2023-11-05T01:30:39.894Z,10.2
2023-11-05T01:40:39.877Z,10.2
2023-11-05T01:50:39.847Z,10.3
2023-11-05T02:00:39.814Z,10.4
2023-11-05T02:10:39.785Z,10.5
2023-11-05T02:20:39.796Z,10.5
2023-11-05T02:30:39.733Z,10.4
2023-11-05T02:40:39.719Z,10.4
2023-11-05T02:50:39.663Z,10.4
2023-11-05T03:00:39.649Z,10.3
2023-11-05T03:10:39.599Z,10.3
2023-11-05T03:20:39.563Z,10.2
2023-11-05T03:30:39.539Z,10.3
2023-11-05T03:40:39.524Z,10.3
2023-11-05T03:50:39.476Z,10.3
2023-11-05T04:00:39.485Z,10.3
2023-11-05T04:10:39.419Z,10.3
2023-11-05T04:20:39.420Z,10.4
2023-11-05T04:30:39.357Z,10.3
2023-11-05T04:40:39.339Z,10.2
2023-11-05T04:50:39.292Z,10.3
2023-11-05T05:00:39.265Z,10.4
2023-11-05T05:10:39.397Z,10.4
2023-11-05T05:20:39.213Z,10.5
2023-11-05T05:30:39.198Z,10.5
2023-11-05T05:40:39.156Z,10.5
2023-11-05T05:50:39.144Z,10.5
2023-11-05T06:00:39.100Z,10.3
2023-11-05T06:10:39.065Z,10.1
2023-11-05T06:20:39.041Z,9.9
2023-11-05T06:30:39.014Z,9.7
2023-11-05T06:40:38.989Z,9.5
2023-11-05T06:50:38.943Z,9.5
2023-11-05T07:00:38.935Z,9.4
2023-11-05T07:10:38.891Z,9.4
2023-11-05T07:20:38.874Z,9.4
2023-11-05T07:30:38.836Z,9.4
2023-11-05T07:40:38.815Z,9.5
2023-11-05T07:50:38.792Z,9.5
2023-11-05T08:00:38.752Z,9.6
2023-11-05T08:10:38.743Z,9.6
2023-11-05T08:20:38.693Z,9.6
2023-11-05T08:30:38.693Z,9.7
2023-11-05T08:40:38.636Z,10
2023-11-05T08:50:38.630Z,10.2
2023-11-05T09:00:38.645Z,10.4
2023-11-05T09:10:38.553Z,10.6
2023-11-05T09:20:38.498Z,10.8
2023-11-05T09:30:38.571Z,10.9
2023-11-05T09:40:38.516Z,10.8
2023-11-05T09:50:38.436Z,10.6
2023-11-05T10:00:38.389Z,10.6
2023-11-05T10:10:38.366Z,10.6
2023-11-05T10:20:38.349Z,10.7
2023-11-05T10:30:38.306Z,10.9
2023-11-05T10:40:38.278Z,10.9
2023-11-05T10:50:38.252Z,10.7
2023-11-05T11:00:38.238Z,10.7
2023-11-05T11:10:38.190Z,10.8
2023-11-05T11:20:38.468Z,10.9
2023-11-05T11:30:38.131Z,10.9
2023-11-05T11:40:38.101Z,10.7
2023-11-05T11:50:38.407Z,10.3
2023-11-05T12:00:38.371Z,10.5
2023-11-05T12:10:38.102Z,10.5
2023-11-05T12:20:37.994Z,10.5
2023-11-05T12:30:37.970Z,10.5
2023-11-05T12:40:37.935Z,10.6
2023-11-05T12:50:37.905Z,10.9
2023-11-05T13:00:37.872Z,11.2
2023-11-05T13:10:37.836Z,11.3
2023-11-05T13:20:37.806Z,11.6
2023-11-05T13:30:37.784Z,11.6
2023-11-05T13:40:37.736Z,11.6
2023-11-05T13:50:37.727Z,11.7
2023-11-05T14:00:37.692Z,11.7
2023-11-05T14:10:37.653Z,11.6
2023-11-05T14:20:37.645Z,11.4
2023-11-05T14:30:37.601Z,11.3
2023-11-05T14:40:37.568Z,10.8
2023-11-05T14:50:37.521Z,10.6
2023-11-05T15:00:37.491Z,10.5
2023-11-05T15:10:37.480Z,10.5
2023-11-05T15:20:37.480Z,10.5
2023-11-05T15:30:37.415Z,10.5
2023-11-05T15:40:37.392Z,10.6
2023-11-05T15:50:37.354Z,10.7
2023-11-05T16:00:37.319Z,10.8
2023-11-05T16:10:37.300Z,10.9
2023-11-05T16:20:37.269Z,10.9
2023-11-05T16:30:37.241Z,11
2023-11-05T16:40:37.202Z,11
2023-11-05T16:50:37.196Z,11
2023-11-05T17:00:37.147Z,11
2023-11-05T17:10:37.119Z,11
2023-11-05T17:20:37.092Z,11.1
2023-11-05T17:30:37.078Z,11.1
2023-11-05T17:40:37.023Z,10.9
2023-11-05T17:50:36.996Z,10.7
2023-11-05T18:00:36.968Z,10.6
2023-11-05T18:10:36.938Z,10.5
2023-11-05T18:20:36.905Z,10.4
2023-11-05T18:30:36.887Z,10.3
2023-11-05T18:40:36.848Z,10.2
2023-11-05T18:50:36.834Z,10.3
2023-11-05T19:00:36.798Z,10.3
2023-11-05T19:10:36.757Z,10.4
2023-11-05T19:20:36.730Z,10.6
2023-11-05T19:30:36.698Z,10.7
2023-11-05T19:40:36.662Z,10.8
2023-11-05T19:50:36.660Z,10.9
2023-11-05T20:00:36.612Z,11
2023-11-05T20:10:36.669Z,10.9
2023-11-05T20:20:36.553Z,10.8
2023-11-05T20:30:36.508Z,10.7
2023-11-05T20:40:36.556Z,10.7
2023-11-05T20:50:36.453Z,10.6
2023-11-05T21:00:36.446Z,10.5
2023-11-05T21:10:36.400Z,10.4
2023-11-05T21:20:36.372Z,10.4
2023-11-05T21:30:36.332Z,10.3
2023-11-05T21:40:36.314Z,10.3
2023-11-05T21:50:36.291Z,10.1
2023-11-05T22:00:36.247Z,10
2023-11-05T22:10:36.206Z,10.1
2023-11-05T22:20:36.197Z,10.1
2023-11-05T22:30:36.162Z,10.1
2023-11-05T22:40:36.140Z,10.1
2023-11-05T22:50:36.102Z,10.3
2023-11-05T23:00:36.059Z,10.4
2023-11-05T23:10:36.044Z,10.5
2023-11-05T23:20:36.011Z,10.5
2023-11-05T23:30:35.997Z,10.5
2023-11-05T23:40:35.960Z,10.5
2023-11-05T23:50:35.935Z,10.6
